Latest Weather Observations for Glen Innes Airport

IDN60801

Issued at 10:03 pm EST Tuesday 27 September 2016 (issued every 30 minutes, with the page automatically refreshed every 10 minutes)

About weather observations | Map of weather stations | Latest weather observations for NSW | Other Formats
Station Details ID: 056243 Name: GLEN INNES AIRPORT AWS Lat: -29.68 Lon: 151.69 Height: 1044.3 m
Data from the previous 72 hours. | See also: Recent months at Glen Innes Airport
Date/Time
EST
Temp
°C
App
Temp
°C
Dew
Point
°C
Rel
Hum
%
Delta-T
°C
Wind Press
QNH
hPa
Press
MSL
hPa
Rain since
9am
mm
Dir  Spd
km/h
Gust
km/h
Spd
kts
Gust
kts
27/10:00pm 9.8 4.9 5.0 72 2.3 W 20 26 11 14 1014.4 1012.8 0.0
27/09:30pm 10.0 4.7 5.2 72 2.3 W 22 32 12 17 1014.6 1013.1 0.0
27/09:00pm 10.1 4.9 5.5 73 2.2 W 22 28 12 15 1014.7 1013.2 0.0
27/08:30pm 10.6 4.7 5.6 71 2.4 WNW 26 37 14 20 1014.7 1013.2 0.0
27/08:00pm 10.4 5.2 5.6 72 2.3 W 22 32 12 17 1015.0 1013.4 0.0
27/07:30pm 10.7 5.1 5.5 70 2.5 W 24 32 13 17 1014.8 1013.3 0.0
27/07:00pm 10.9 5.3 5.4 69 2.7 W 24 35 13 19 1014.6 1013.1 0.0
27/06:30pm 11.7 4.9 5.3 65 3.1 WNW 30 37 16 20 1014.3 1012.7 0.0
27/06:00pm 11.8 5.3 4.8 62 3.4 W 28 39 15 21 1014.0 1012.4 0.0
27/05:30pm 12.9 5.6 4.3 56 4.2 W 32 44 17 24 1013.9 1012.3 0.0
27/05:03pm 13.0 5.0 3.9 54 4.4 W 35 54 19 29 1013.5 1011.9 0.0
27/05:00pm 13.1 4.3 3.5 52 4.6 W 39 54 21 29 1013.5 1011.9 0.0
27/04:53pm 13.4 5.7 3.2 50 4.8 W 33 54 18 29 1013.3 1011.7 0.0
27/04:30pm 14.5 6.4 3.3 47 5.4 W 35 50 19 27 1013.3 1011.7 0.0
27/04:00pm 15.5 5.8 3.0 43 6.0 W 43 61 23 33 1013.3 1011.7 0.0
27/03:32pm 14.9 6.3 2.8 44 5.8 W 37 56 20 30 1013.3 1011.7 0.0
27/03:30pm 15.5 6.8 4.3 47 5.5 W 39 56 21 30 1013.3 1011.7 0.0
27/03:06pm 16.0 8.7 4.7 47 5.6 W 32 50 17 27 1013.5 1011.9 0.0
27/03:00pm 15.5 6.6 3.3 44 5.9 W 39 56 21 30 1013.4 1011.8 0.0
27/02:30pm 16.3 8.3 3.7 43 6.2 W 35 48 19 26 1013.6 1012.0 0.0
27/02:13pm 15.9 7.2 2.3 40 6.5 W 37 56 20 30 1013.9 1012.3 0.0
27/02:00pm 16.0 8.0 3.8 44 6.0 W 35 52 19 28 1013.9 1012.3 0.0
27/01:41pm 15.8 8.4 4.2 46 5.7 W 32 50 17 27 1014.2 1012.6 0.0
27/01:30pm 16.1 8.6 4.2 45 5.9 W 33 48 18 26 1014.2 1012.6 0.0
27/01:00pm 15.4 8.4 2.2 41 6.2 W 28 43 15 23 1014.6 1013.1 0.0
27/12:30pm 15.1 8.4 3.9 47 5.5 W 28 43 15 23 1014.8 1013.3 0.0
27/12:00pm 14.4 8.2 4.1 50 5.0 WSW 26 37 14 20 1015.6 1014.1 0.0
27/11:30am 14.4 8.6 4.4 51 4.9 WSW 24 33 13 18 1016.2 1014.6 0.0
27/11:00am 13.8 9.3 4.1 52 4.7 WSW 17 28 9 15 1016.6 1015.1 0.0
27/10:30am 13.1 7.9 2.6 49 4.9 WSW 19 28 10 15 1017.0 1015.4 0.0
27/10:00am 12.5 7.2 2.9 52 4.5 WSW 20 44 11 24 1017.3 1015.8 0.0
27/09:30am 11.1 5.1 3.4 59 3.6 SW 24 33 13 18 1017.5 1016.0 0.0
27/09:00am 10.8 4.0 3.1 59 3.6 WSW 28 33 15 18 1017.3 1015.8 0.0
27/08:30am 10.4 4.0 3.2 61 3.3 WSW 26 33 14 18 1017.3 1015.8 0.0
27/08:00am 9.8 4.2 3.3 64 3.0 WSW 22 32 12 17 1017.1 1015.6 0.0
27/07:30am 9.0 3.7 2.8 65 2.8 SW 20 30 11 16 1016.7 1015.2 0.0
27/07:00am 7.6 2.7 1.9 67 2.5 WSW 17 22 9 12 1016.5 1015.0 0.0
27/06:30am 5.6 1.3 1.2 73 1.9 SW 13 17 7 9 1016.1 1014.5 0.0
27/06:00am 3.1 -0.6 0.0 80 1.2 WSW 9 13 5 7 1015.6 1014.1 0.0
27/05:30am 2.1 0.1 0.2 87 0.8 CALM 0 0 0 0 1015.2 1013.6 0.0
27/05:00am 2.1 -1.6 -0.2 85 0.9 SSW 9 13 5 7 1014.7 1013.2 0.0
27/04:30am 3.0 -0.6 0.9 86 0.9 SW 9 11 5 6 1014.7 1013.2 0.0
27/04:00am 3.6 -0.3 1.3 85 1.0 SW 11 20 6 11 1014.3 1012.7 0.0
27/03:30am 4.2 -0.7 1.9 85 1.0 SW 17 20 9 11 1014.2 1012.6 0.0
27/03:00am 3.8 -0.8 1.8 87 0.8 WSW 15 20 8 11 1014.2 1012.6 0.0
27/02:30am 4.4 0.3 2.1 85 1.0 SW 13 17 7 9 1014.2 1012.6 0.0
27/02:00am 4.6 -0.1 2.9 89 0.7 SW 17 20 9 11 1014.5 1013.0 0.0
27/01:30am 5.0 -0.2 3.3 89 0.8 WSW 20 30 11 16 1014.8 1013.3 0.0
27/01:00am 5.7 -0.2 4.0 89 0.8 WSW 24 37 13 20 1015.2 1013.6 0.0
27/12:30am 5.7 0.6 4.2 90 0.7 WSW 20 28 11 15 1015.1 1013.5 0.0
27/12:00am 5.7 0.7 4.5 92 0.6 WSW 20 26 11 14 1015.4 1013.9 0.0
 
Date/Time
EST
Temp
°C
App
Temp
°C
Dew
Point
°C
Rel
Hum
%
Delta-T
°C
Wind Press
QNH
hPa
Press
MSL
hPa
Rain since
9am
mm
Dir  Spd
km/h
Gust
km/h
Spd
kts
Gust
kts
26/11:30pm 5.6 1.9 4.4 92 0.5 W 13 17 7 9 1015.4 1013.9 0.0
26/11:00pm 5.5 1.8 4.2 91 0.6 W 13 20 7 11 1015.4 1013.9 0.0
26/10:30pm 6.2 1.7 4.4 88 0.8 W 17 22 9 12 1015.5 1014.0 0.0
26/10:01pm 6.5 2.4 4.3 86 1.0 W 15 20 8 11 1016.0 1014.4 0.0
26/10:00pm 6.6 2.5 4.4 86 1.0 W 15 20 8 11 1016.0 1014.4 0.0
26/09:47pm 6.8 2.8 5.0 88 0.8 W 15 20 8 11 1016.2 1014.6 0.0
26/09:30pm 6.3 2.2 4.3 87 0.9 W 15 19 8 10 1016.1 1014.5 0.0
26/09:00pm 7.2 2.8 4.7 84 1.2 WSW 17 26 9 14 1016.0 1014.4 0.0
26/08:30pm 7.7 3.7 5.0 83 1.3 WSW 15 22 8 12 1016.2 1014.6 0.0
26/08:00pm 8.3 3.6 5.1 80 1.5 W 19 24 10 13 1015.3 1013.7 0.0
26/07:30pm 8.7 4.4 5.1 78 1.7 W 17 22 9 12 1015.0 1013.4 0.0
26/07:00pm 9.3 4.6 5.3 76 1.9 W 19 28 10 15 1014.6 1013.1 0.0
26/06:30pm 10.4 6.1 5.2 70 2.5 W 17 26 9 14 1013.9 1012.3 0.0
26/06:00pm 11.2 7.3 5.3 67 2.9 W 15 19 8 10 1013.6 1012.0 0.0
26/05:30pm 12.0 7.9 4.5 60 3.6 W 15 22 8 12 1013.3 1011.7 0.0
26/05:00pm 12.7 8.5 3.6 54 4.3 W 15 19 8 10 1012.9 1011.3 0.0
26/04:30pm 13.5 9.7 3.8 52 4.7 W 13 19 7 10 1012.9 1011.3 0.0
26/04:00pm 14.1 8.5 1.4 42 5.8 WNW 20 28 11 15 1012.9 1011.3 0.0
26/03:30pm 15.4 10.3 3.2 44 5.9 W 19 26 10 14 1012.9 1011.3 0.0
26/03:00pm 15.6 10.4 3.4 44 5.9 W 20 28 11 15 1012.9 1011.3 0.0
26/02:30pm 15.5 10.3 3.3 44 5.9 W 20 28 11 15 1013.1 1011.5 0.0
26/02:00pm 16.0 11.3 5.0 48 5.5 WSW 19 26 10 14 1013.3 1011.7 0.0
26/01:30pm 15.9 11.2 5.2 49 5.4 W 19 30 10 16 1013.6 1012.0 0.0
26/01:00pm 15.1 10.2 3.9 47 5.5 W 19 28 10 15 1013.9 1012.3 0.0
26/12:30pm 15.4 10.9 4.2 47 5.5 W 17 24 9 13 1014.3 1012.7 0.0
26/12:00pm 15.0 9.8 2.5 43 5.9 W 19 26 10 14 1014.6 1013.1 0.0
26/11:30am 14.9 9.8 4.0 48 5.3 W 20 30 11 16 1015.1 1013.5 0.0
26/11:00am 14.6 9.8 2.5 44 5.7 W 17 28 9 15 1015.3 1013.7 0.0
26/10:30am 14.3 9.6 2.9 46 5.4 W 17 26 9 14 1015.5 1014.0 0.0
26/10:00am 13.5 8.8 3.3 50 4.9 WNW 17 22 9 12 1015.4 1013.9 0.0
26/09:30am 13.2 9.7 5.4 59 3.9 WSW 13 19 7 10 1015.7 1014.2 0.0
26/09:00am 12.1 8.5 4.8 61 3.5 WSW 13 20 7 11 1015.6 1014.1 5.8
26/08:30am 10.9 8.6 5.9 71 2.5 W 7 13 4 7 1015.6 1014.1 5.8
26/08:00am 10.2 9.0 6.5 78 1.8 SSW 2 17 1 9 1015.4 1013.9 5.8
26/07:30am 9.1 6.9 6.4 83 1.3 S 7 17 4 9 1015.2 1013.6 5.8
26/07:00am 7.2 6.4 6.6 96 0.3 CALM 0 0 0 0 1015.1 1013.5 5.8
26/06:55am 6.9 6.1 6.5 97 0.2 CALM 0 0 0 0 1015.1 1013.5 5.8
26/06:49am 6.0 5.0 5.4 96 0.3 CALM 0 0 0 0 1015.0 1013.4 5.8
26/06:30am 4.2 2.8 3.8 97 0.2 CALM 0 0 0 0 1014.6 1013.1 5.8
26/06:00am 1.8 0.0 1.1 95 0.3 CALM 0 0 0 0 1014.4 1012.8 5.8
26/05:30am 3.1 1.5 2.5 96 0.3 CALM 0 0 0 0 1014.1 1012.5 5.8
26/05:00am 4.6 3.3 4.0 96 0.3 CALM 0 0 0 0 1014.2 1012.6 5.8
26/04:30am 4.1 2.7 3.5 96 0.3 CALM 0 6 0 3 1013.9 1012.3 5.8
26/04:19am 3.5 0.6 2.8 95 0.3 W 7 13 4 7 1014.0 1012.4 5.8
26/04:05am 4.9 3.6 4.3 96 0.3 CALM 0 0 0 0 1013.6 1012.0 5.8
26/04:00am 5.3 4.1 4.7 96 0.3 CALM 0 4 0 2 1013.7 1012.2 5.8
26/03:44am 5.2 2.8 4.5 95 0.3 WSW 6 9 3 5 1013.6 1012.0 5.6
26/03:30am 4.8 1.8 4.1 95 0.3 SW 9 11 5 6 1013.9 1012.3 5.6
26/03:19am 5.0 2.0 4.1 94 0.4 WSW 9 11 5 6 1013.7 1012.2 5.6
26/03:00am 5.6 4.4 4.7 94 0.4 CALM 0 9 0 5 1013.5 1011.9 5.6
26/02:30am 6.3 3.6 5.4 94 0.4 WSW 9 13 5 7 1013.7 1012.2 5.6
26/02:00am 6.7 4.4 5.5 92 0.6 W 7 9 4 5 1013.7 1012.2 5.6
26/01:30am 7.2 4.6 6.1 93 0.5 W 9 11 5 6 1014.0 1012.4 5.6
26/01:01am 7.2 5.0 5.5 89 0.8 SSW 6 11 3 6 1013.7 1012.2 5.6
26/01:00am 7.3 5.2 5.6 89 0.8 SSW 6 11 3 6 1013.7 1012.2 5.6
26/12:30am 7.5 6.5 5.5 87 1.0 CALM 0 0 0 0 1013.6 1012.0 5.6
26/12:00am 7.8 6.1 5.8 87 1.0 SSW 4 11 2 6 1014.0 1012.4 5.6
 
Date/Time
EST
Temp
°C
App
Temp
°C
Dew
Point
°C
Rel
Hum
%
Delta-T
°C
Wind Press
QNH
hPa
Press
MSL
hPa
Rain since
9am
mm
Dir  Spd
km/h
Gust
km/h
Spd
kts
Gust
kts
25/11:39pm 8.4 6.0 6.9 90 0.7 SW 9 15 5 8 1014.2 1012.6 5.6
25/11:30pm 8.5 5.3 7.0 90 0.7 SW 13 20 7 11 1014.1 1012.5 5.6
25/11:02pm 8.9 5.0 7.2 89 0.8 WSW 17 24 9 13 1014.2 1012.6 5.6
25/11:00pm 8.9 5.0 7.2 89 0.9 WSW 17 24 9 13 1014.1 1012.5 5.6
25/10:30pm 8.9 4.5 7.4 90 0.8 WSW 20 30 11 16 1014.2 1012.6 5.6
25/10:00pm 8.4 4.8 6.7 89 0.8 WSW 15 20 8 11 1013.7 1012.2 5.6
25/09:30pm 8.8 7.3 6.8 87 1.0 W 4 9 2 5 1014.0 1012.4 5.6
25/09:00pm 9.8 9.3 7.7 87 1.1 CALM 0 9 0 5 1013.6 1012.0 5.6
25/08:57pm 9.9 9.1 8.0 88 1.0 WSW 2 11 1 6 1013.6 1012.0 5.6
25/08:30pm 10.1 9.0 8.4 89 0.9 WSW 4 17 2 9 1013.4 1011.8 5.6
25/08:28pm 10.1 8.6 8.4 89 0.9 WSW 6 17 3 9 1013.4 1011.8 5.6
25/08:00pm 10.2 7.4 8.6 90 0.8 SW 13 17 7 9 1013.1 1011.5 5.6
25/07:58pm 10.2 7.4 8.6 90 0.8 SW 13 17 7 9 1013.1 1011.5 5.6
25/07:30pm 10.4 8.8 8.7 89 0.9 W 7 24 4 13 1012.9 1011.3 5.2
25/07:27pm 10.5 8.5 8.6 88 1.0 W 9 24 5 13 1012.7 1011.1 5.2
25/07:00pm 10.3 7.4 8.2 87 1.1 WSW 13 20 7 11 1012.4 1010.8 5.2
25/06:30pm 10.1 6.8 8.0 87 1.1 WSW 15 20 8 11 1011.9 1010.2 5.2
25/06:00pm 10.2 6.0 7.6 84 1.3 WSW 19 30 10 16 1011.3 1009.7 5.2
25/05:30pm 12.4 6.7 8.3 76 2.1 W 28 35 15 19 1010.8 1009.1 4.6
25/05:00pm 12.5 7.3 8.8 78 2.0 W 26 35 14 19 1010.4 1008.8 4.6
25/04:30pm 13.0 7.9 9.1 77 2.1 W 26 35 14 19 1010.0 1008.3 4.6
25/04:26pm 12.7 6.7 8.6 76 2.2 W 30 48 16 26 1010.0 1008.3 4.6
25/04:00pm 13.6 7.2 8.7 72 2.6 W 32 44 17 24 1009.5 1007.9 4.6
25/03:53pm 13.9 8.2 9.7 76 2.3 W 30 48 16 26 1009.6 1008.0 4.6
25/03:30pm 13.4 6.1 8.7 73 2.5 W 37 46 20 25 1009.4 1007.7 4.6
25/03:19pm 13.3 7.8 9.2 76 2.2 W 28 46 15 25 1009.4 1007.7 4.6
25/03:00pm 12.4 6.1 8.9 79 1.9 W 32 43 17 23 1009.6 1008.0 4.6
25/02:33pm 12.4 6.8 10.0 85 1.3 W 30 46 16 25 1009.4 1007.7 4.6
25/02:30pm 12.5 7.5 10.9 90 0.9 W 28 35 15 19 1009.4 1007.7 4.6
25/02:09pm 11.0 4.9 8.4 84 1.4 W 30 43 16 23 1009.4 1007.7 3.8
25/02:00pm 11.7 5.9 9.3 85 1.3 WNW 30 41 16 22 1009.2 1007.5 2.6
25/01:30pm 13.0 6.7 8.9 76 2.2 WNW 32 41 17 22 1008.6 1007.0 1.4
25/01:00pm 12.9 6.8 9.9 82 1.6 W 32 46 17 25 1009.1 1007.4 1.2
25/12:42pm 13.0 6.6 9.4 79 1.9 W 33 52 18 28 1009.1 1007.4 1.2
25/12:30pm 13.6 6.1 9.3 75 2.3 W 39 54 21 29 1009.2 1007.5 1.2
25/12:23pm 13.8 6.9 9.0 73 2.6 W 35 50 19 27 1009.3 1007.6 1.2
25/12:00pm 13.1 6.5 9.9 81 1.7 W 35 50 19 27 1009.5 1007.9 1.2
25/11:30am 12.0 5.3 9.7 86 1.2 W 35 56 19 30 1010.2 1008.5 1.2
25/11:28am 11.6 5.2 9.3 86 1.2 W 33 56 18 30 1010.1 1008.4 1.2
25/11:00am 11.2 5.8 9.5 89 0.9 W 28 41 15 22 1010.3 1008.6 1.2
25/10:46am 11.2 6.5 9.1 87 1.1 W 24 32 13 17 1010.4 1008.8 1.2
25/10:44am 11.6 7.1 10.0 90 0.9 WNW 24 32 13 17 1010.5 1008.9 1.2
25/10:30am 10.9 6.9 9.2 89 0.9 WNW 20 26 11 14 1010.8 1009.1 0.8
25/10:26am 10.9 6.2 9.2 89 0.9 W 24 30 13 16 1010.9 1009.2 0.8
25/10:00am 11.0 5.4 8.8 86 1.2 W 28 35 15 19 1010.9 1009.2 0.4
25/09:30am 11.9 7.8 8.7 81 1.7 WNW 20 28 11 15 1010.9 1009.2 0.2
25/09:00am 12.3 8.3 8.2 76 2.1 WNW 19 28 10 15 1010.4 1008.8 1.0
25/08:30am 12.2 8.1 8.5 78 1.9 NW 20 28 11 15 1010.4 1008.8 1.0
25/08:00am 11.0 7.7 8.1 82 1.5 NW 15 19 8 10 1010.5 1008.9 1.0
25/07:30am 9.9 6.6 8.2 89 0.9 NNW 15 19 8 10 1010.5 1008.9 1.0
25/07:00am 9.4 9.0 8.3 93 0.6 CALM 0 0 0 0 1010.5 1008.9 1.0
25/06:30am 8.5 7.9 7.4 93 0.6 CALM 0 0 0 0 1010.8 1009.1 1.0
25/06:00am 8.5 6.2 7.4 93 0.6 NW 9 11 5 6 1010.8 1009.1 0.8
25/05:30am 8.2 7.4 6.7 90 0.7 CALM 0 0 0 0 1010.5 1008.9 0.6
25/05:00am 8.5 7.8 6.8 89 0.8 CALM 0 6 0 3 1010.9 1009.2 0.6
25/04:30am 9.0 5.8 6.8 86 1.1 W 13 19 7 10 1011.0 1009.3 0.4
25/04:00am 8.9 6.5 7.2 89 0.9 W 9 13 5 7 1011.0 1009.3 0.0
25/03:30am 9.0 5.9 7.1 88 0.9 WNW 13 15 7 8 1010.6 1009.0 0.0
25/03:00am 8.3 7.6 6.8 90 0.7 CALM 0 0 0 0 1010.1 1008.4 0.0
25/02:30am 8.4 6.5 6.9 90 0.7 NW 6 9 3 5 1010.6 1009.0 0.0
25/02:00am 8.4 7.7 7.0 91 0.7 CALM 0 0 0 0 1010.6 1009.0 0.0
25/01:30am 8.1 7.3 6.6 90 0.7 CALM 0 7 0 4 1011.2 1009.6 0.0
25/01:00am 8.3 6.2 6.8 90 0.7 WNW 7 9 4 5 1011.3 1009.7 0.0
25/12:30am 8.1 5.6 6.7 91 0.7 WNW 9 11 5 6 1011.7 1010.1 0.0
25/12:00am 7.8 5.8 6.4 91 0.7 WNW 6 11 3 6 1012.4 1010.8 0.0
 
Date/Time
EST
Temp
°C
App
Temp
°C
Dew
Point
°C
Rel
Hum
%
Delta-T
°C
Wind Press
QNH
hPa
Press
MSL
hPa
Rain since
9am
mm
Dir  Spd
km/h
Gust
km/h
Spd
kts
Gust
kts
24/11:30pm 7.2 6.2 5.5 89 0.8 CALM 0 0 0 0 1012.1 1010.5 0.0
24/11:00pm 7.5 6.6 6.0 90 0.7 CALM 0 0 0 0 1012.5 1010.9 0.0
24/10:30pm 6.4 5.3 5.2 92 0.6 CALM 0 0 0 0 1013.0 1011.4 0.0

Other Formats:

Comma delimited format used in spreadsheet applications
http://www.bom.gov.au/fwo/IDN60801/IDN60801.94588.axf

JavaScript Object Notation format (JSON) in row-major order
http://www.bom.gov.au/fwo/IDN60801/IDN60801.94588.json